Time;durP1;ratioP1;P1;durP2;ratioP2;P2;SDS_P1;SDS_P2;PMS_P1;PMS_P2;Temp;Humidity;BMP_temperature;BMP_pressure;BME280_temperature;BME280_humidity;BME280_pressure;Samples;Min_cycle;Max_cycle;Signal;HPM_P1;HPM_P2
2022/06/17 00:00:32;;;;;;;5.50;4.30;;;;;;;19.34;69.21;98741.22;4215528;28;20672;-85
2022/06/17 00:02:37;;;;;;;5.03;4.40;;;;;;;19.38;67.98;98739.97;4203669;28;20623;-85
2022/06/17 00:04:41;;;;;;;5.67;4.30;;;;;;;19.44;68.22;98742.88;4218255;28;21174;-85
2022/06/17 00:06:47;;;;;;;4.30;3.80;;;;;;;19.50;68.71;98752.03;4202022;28;20636;-84
2022/06/17 00:08:52;;;;;;;5.43;3.90;;;;;;;19.54;67.67;98751.59;4204839;28;20655;-85
2022/06/17 00:10:55;;;;;;;4.50;3.93;;;;;;;19.59;67.63;98757.31;4195145;28;20627;-85
2022/06/17 00:12:59;;;;;;;4.23;3.83;;;;;;;19.64;66.87;98760.38;4210927;28;21246;-85
2022/06/17 00:15:14;;;;;;;5.23;4.20;;;;;;;19.68;67.60;98755.59;4218871;28;20639;-85
2022/06/17 00:17:17;;;;;;;4.43;3.63;;;;;;;19.72;67.09;98764.94;4221019;28;20646;-85
2022/06/17 00:19:22;;;;;;;4.13;3.40;;;;;;;19.75;66.10;98762.00;4211165;28;20653;-85
2022/06/17 00:21:28;;;;;;;6.00;4.60;;;;;;;19.75;67.67;98765.47;4204103;28;20647;-85
2022/06/17 00:23:31;;;;;;;5.70;5.20;;;;;;;19.63;68.08;98761.34;4205738;28;20647;-85
2022/06/17 00:25:36;;;;;;;5.53;5.03;;;;;;;19.53;69.35;98760.56;4205730;28;20647;-85
2022/06/17 00:27:39;;;;;;;5.80;5.20;;;;;;;19.44;69.46;98757.94;4221067;28;20650;-85
2022/06/17 00:29:42;;;;;;;5.20;4.80;;;;;;;19.32;69.18;98763.50;4205582;28;20725;-85
2022/06/17 00:31:45;;;;;;;8.70;4.50;;;;;;;19.25;69.30;98763.25;4223630;28;20645;-85
2022/06/17 00:33:49;;;;;;;5.50;5.00;;;;;;;19.19;69.14;98763.81;4223021;28;20611;-85
2022/06/17 00:36:20;;;;;;;5.20;4.43;;;;;;;19.12;69.13;98768.00;4210524;28;20671;-85
2022/06/17 00:38:26;;;;;;;5.30;4.70;;;;;;;19.07;70.28;98774.69;4218000;28;21244;-85
2022/06/17 00:40:32;;;;;;;5.70;5.10;;;;;;;19.00;70.92;98768.25;4222165;28;20716;-85
2022/06/17 00:42:35;;;;;;;5.73;5.13;;;;;;;18.96;71.15;98775.63;4218315;28;20672;-85
2022/06/17 00:44:43;;;;;;;5.80;5.23;;;;;;;18.91;71.11;98771.72;4200370;28;20652;-85
2022/06/17 00:46:50;;;;;;;5.50;5.00;;;;;;;18.88;72.14;98777.28;4216724;28;20707;-85
2022/06/17 00:49:00;;;;;;;6.20;4.83;;;;;;;18.77;72.43;98771.31;4231672;28;20632;-85
2022/06/17 00:51:10;;;;;;;5.87;5.00;;;;;;;18.73;71.65;98783.97;4218313;28;20622;-85
2022/06/17 00:53:18;;;;;;;7.00;4.30;;;;;;;18.71;70.25;98785.91;4214453;28;20634;-85
2022/06/17 00:55:28;;;;;;;7.20;4.53;;;;;;;18.68;70.80;98786.19;4205024;28;20642;-86
2022/06/17 00:57:37;;;;;;;5.10;4.43;;;;;;;18.69;71.48;98781.75;4222836;28;21320;-84
2022/06/17 00:59:40;;;;;;;5.07;4.67;;;;;;;18.59;71.51;98779.09;4202962;28;20653;-84
2022/06/17 01:01:48;;;;;;;6.10;4.40;;;;;;;18.47;71.46;98776.72;4202050;28;20664;-85
2022/06/17 01:03:52;;;;;;;5.97;5.37;;;;;;;18.43;72.00;98778.81;4223008;28;20639;-85
2022/06/17 01:06:00;;;;;;;6.00;5.40;;;;;;;18.36;72.21;98774.19;4201168;28;20687;-86
2022/06/17 01:08:12;;;;;;;5.93;5.40;;;;;;;18.31;73.74;98772.91;4200507;28;21273;-85
2022/06/17 01:10:17;;;;;;;5.43;4.93;;;;;;;18.26;73.78;98780.41;4204828;28;20629;-85
2022/06/17 01:12:24;;;;;;;6.20;5.30;;;;;;;18.22;73.05;98776.38;4214136;28;20648;-85
2022/06/17 01:14:28;;;;;;;7.53;5.40;;;;;;;18.24;72.36;98769.16;4215299;28;20684;-85
2022/06/17 01:16:34;;;;;;;4.57;4.17;;;;;;;18.23;71.88;98768.31;4200450;28;21282;-85
2022/06/17 01:18:47;;;;;;;5.23;4.73;;;;;;;18.21;72.00;98780.00;4202204;28;21297;-85
2022/06/17 01:20:54;;;;;;;5.60;4.93;;;;;;;18.14;73.12;98774.41;4199708;28;21095;-85
2022/06/17 01:23:01;;;;;;;5.77;5.20;;;;;;;18.09;73.66;98781.03;4196213;28;20659;-84
2022/06/17 01:25:07;;;;;;;5.43;4.80;;;;;;;17.95;73.91;98768.19;4216254;28;20641;-85
2022/06/17 01:27:10;;;;;;;6.27;5.00;;;;;;;17.84;73.95;98765.66;4218436;28;20678;-84
2022/06/17 01:29:14;;;;;;;6.27;5.00;;;;;;;17.82;73.87;98762.31;4204886;28;21233;-85
2022/06/17 01:31:18;;;;;;;5.13;4.50;;;;;;;17.79;74.32;98751.19;4214442;28;20649;-85
2022/06/17 01:33:25;;;;;;;12.30;4.70;;;;;;;17.76;73.53;98754.09;4215010;28;20671;-84
2022/06/17 01:35:31;;;;;;;6.80;4.83;;;;;;;17.70;73.97;98750.19;4205698;28;20633;-85
2022/06/17 01:37:34;;;;;;;5.77;5.07;;;;;;;17.64;73.57;98742.78;4217682;28;20648;-85
2022/06/17 01:39:41;;;;;;;5.67;5.17;;;;;;;17.63;75.06;98758.75;4210353;28;21263;-85
2022/06/17 01:41:45;;;;;;;6.57;5.87;;;;;;;17.62;73.49;98763.19;4209069;28;21181;-84
2022/06/17 01:43:51;;;;;;;5.83;5.33;;;;;;;17.61;73.77;98753.59;4205585;28;20633;-85
2022/06/17 01:45:57;;;;;;;5.30;4.80;;;;;;;17.59;75.33;98752.06;4204454;28;20670;-84
2022/06/17 01:48:01;;;;;;;8.47;5.03;;;;;;;17.53;75.71;98742.88;4213013;28;20639;-85
2022/06/17 01:50:08;;;;;;;6.67;5.47;;;;;;;17.46;74.54;98741.72;4225363;28;21012;-84
2022/06/17 01:52:14;;;;;;;5.53;5.03;;;;;;;17.43;73.50;98751.72;4207885;28;20646;-84
2022/06/17 01:54:23;;;;;;;5.50;4.90;;;;;;;17.42;75.84;98751.84;4224344;28;21315;-85
2022/06/17 01:56:34;;;;;;;6.10;4.90;;;;;;;17.38;75.75;98742.50;4224722;28;21296;-84
2022/06/17 01:58:40;;;;;;;5.20;4.70;;;;;;;17.33;74.97;98742.06;4201987;28;20649;-84
2022/06/17 02:00:44;;;;;;;5.30;4.80;;;;;;;17.28;76.39;98744.28;4206989;28;20830;-84
2022/06/17 02:02:51;;;;;;;5.50;5.00;;;;;;;17.24;76.72;98746.31;4207027;28;20716;-84
2022/06/17 02:04:58;;;;;;;5.30;4.63;;;;;;;17.24;76.33;98753.41;4217708;28;20640;-85
2022/06/17 02:07:05;;;;;;;6.23;4.87;;;;;;;17.21;74.84;98753.66;4203603;28;20639;-85
2022/06/17 02:09:08;;;;;;;6.23;5.60;;;;;;;17.19;77.58;98753.75;4227610;28;21254;-84
2022/06/17 02:11:14;;;;;;;6.07;5.47;;;;;;;17.20;77.53;98746.66;4200715;28;20648;-85
2022/06/17 02:13:25;;;;;;;6.60;5.20;;;;;;;17.10;77.79;98756.31;4217005;28;21214;-84
2022/06/17 02:15:46;;;;;;;7.83;5.83;;;;;;;17.05;75.66;98755.88;4219625;28;20658;-84
2022/06/17 02:18:11;;;;;;;5.70;5.17;;;;;;;17.02;77.70;98748.22;4222901;28;20628;-85
2022/06/17 02:20:21;;;;;;;5.23;4.73;;;;;;;17.03;77.24;98750.75;4199828;28;20702;-85
2022/06/17 02:22:44;;;;;;;5.93;5.43;;;;;;;17.04;77.81;98757.66;4224914;28;20759;-85
2022/06/17 02:24:49;;;;;;;5.27;4.77;;;;;;;17.07;76.92;98751.31;4207572;28;21562;-85
2022/06/17 02:26:53;;;;;;;5.70;5.20;;;;;;;17.09;76.84;98766.03;4224421;28;20684;-84
2022/06/17 02:28:58;;;;;;;6.57;5.60;;;;;;;17.08;76.40;98766.19;4200716;28;20665;-84
2022/06/17 02:31:02;;;;;;;5.37;4.87;;;;;;;17.08;77.23;98763.53;4203674;28;20699;-86
2022/06/17 02:33:06;;;;;;;6.10;5.47;;;;;;;17.05;78.75;98764.63;4222885;28;20659;-85
2022/06/17 02:35:19;;;;;;;5.63;5.03;;;;;;;17.05;78.09;98761.16;4202723;28;20640;-84
2022/06/17 02:37:24;;;;;;;7.17;5.30;;;;;;;17.04;76.45;98768.22;4214855;28;20738;-84
2022/06/17 02:39:27;;;;;;;6.00;5.13;;;;;;;17.02;77.51;98766.69;4199509;28;21245;-85
2022/06/17 02:41:30;;;;;;;6.13;5.43;;;;;;;16.98;78.21;98772.34;4197897;28;21233;-85
2022/06/17 02:43:36;;;;;;;6.20;5.60;;;;;;;16.96;78.52;98772.47;4203395;28;21235;-86
2022/06/17 02:45:43;;;;;;;8.60;5.90;;;;;;;16.95;79.08;98778.69;4206422;28;20660;-85
2022/06/17 02:47:47;;;;;;;6.23;5.67;;;;;;;16.94;76.96;98789.34;4215904;28;20649;-85
2022/06/17 02:49:51;;;;;;;5.83;5.33;;;;;;;16.89;79.06;98773.09;4204105;28;20725;-85
2022/06/17 02:51:55;;;;;;;6.60;5.50;;;;;;;16.85;79.13;98769.84;4206778;28;20645;-84
2022/06/17 02:54:00;;;;;;;6.80;5.80;;;;;;;16.84;77.52;98776.09;4202231;28;21326;-84
2022/06/17 02:56:06;;;;;;;6.67;6.00;;;;;;;16.86;77.08;98782.09;4207848;28;20623;-85
2022/06/17 02:58:36;;;;;;;6.33;5.70;;;;;;;16.80;77.77;98789.66;4214407;28;20640;-85
2022/06/17 03:00:41;;;;;;;7.63;5.77;;;;;;;16.75;78.29;98792.66;4222516;28;20649;-85
2022/06/17 03:02:46;;;;;;;7.20;5.60;;;;;;;16.72;78.69;98789.47;4204109;28;20721;-84
2022/06/17 03:04:49;;;;;;;6.23;5.60;;;;;;;16.65;78.63;98790.91;4221367;28;21029;-85
2022/06/17 03:06:53;;;;;;;7.00;5.70;;;;;;;16.58;79.19;98785.31;4200345;28;20736;-85
2022/06/17 03:08:58;;;;;;;8.70;5.43;;;;;;;16.55;78.62;98789.97;4201426;28;21215;-85
2022/06/17 03:11:02;;;;;;;6.03;5.50;;;;;;;16.52;77.71;98792.84;4218760;28;21357;-85
2022/06/17 03:13:09;;;;;;;5.77;5.27;;;;;;;16.50;78.65;98793.97;4217682;28;20649;-85
2022/06/17 03:15:14;;;;;;;6.07;5.53;;;;;;;16.44;78.62;98800.53;4218617;28;20627;-85
2022/06/17 03:17:24;;;;;;;7.30;6.60;;;;;;;16.38;77.42;98808.09;4202789;28;20709;-85
2022/06/17 03:19:29;;;;;;;6.30;5.53;;;;;;;16.31;78.85;98804.28;4212652;28;21230;-85
2022/06/17 03:21:32;;;;;;;6.87;6.00;;;;;;;16.24;77.68;98800.47;4206635;28;20688;-85
2022/06/17 03:23:42;;;;;;;6.87;5.80;;;;;;;16.19;79.27;98800.81;4203396;28;20654;-84
2022/06/17 03:25:47;;;;;;;6.47;5.87;;;;;;;16.20;80.00;98809.53;4221878;28;20729;-85
2022/06/17 03:27:54;;;;;;;7.43;5.93;;;;;;;16.17;78.96;98804.50;4201518;28;21153;-85
2022/06/17 03:30:00;;;;;;;7.33;6.37;;;;;;;16.19;79.19;98805.22;4195182;28;21038;-85
2022/06/17 03:32:08;;;;;;;6.20;5.60;;;;;;;16.20;80.44;98813.00;4208413;28;20631;-85
2022/06/17 03:34:15;;;;;;;7.00;6.33;;;;;;;16.22;80.28;98818.16;4204122;28;20635;-85
2022/06/17 03:36:22;;;;;;;6.97;6.20;;;;;;;16.24;79.90;98821.53;4205126;28;21002;-85
2022/06/17 03:38:30;;;;;;;10.83;6.47;;;;;;;16.23;81.12;98818.06;4217449;28;20643;-86
2022/06/17 03:40:37;;;;;;;6.80;5.90;;;;;;;16.28;80.68;98820.31;4207654;28;20662;-85
2022/06/17 03:42:50;;;;;;;7.27;6.57;;;;;;;16.30;79.28;98818.44;4202128;28;20680;-84
2022/06/17 03:44:58;;;;;;;6.10;5.53;;;;;;;16.30;81.23;98819.25;4221183;28;20673;-84
2022/06/17 03:47:05;;;;;;;7.00;5.97;;;;;;;16.32;80.79;98824.41;4216870;28;20628;-84
2022/06/17 03:49:22;;;;;;;6.47;5.87;;;;;;;16.24;80.06;98829.44;4203015;28;20663;-84
2022/06/17 03:51:26;;;;;;;6.47;5.87;;;;;;;16.21;80.74;98833.09;4219784;28;20639;-85
2022/06/17 03:53:33;;;;;;;6.83;5.90;;;;;;;16.24;81.40;98842.59;4211330;28;20629;-85
2022/06/17 03:55:37;;;;;;;6.50;5.90;;;;;;;16.28;79.97;98836.13;4216400;28;21287;-85
2022/06/17 03:57:43;;;;;;;7.80;6.23;;;;;;;16.27;80.16;98845.00;4220796;28;20701;-84
2022/06/17 03:59:49;;;;;;;6.70;6.00;;;;;;;16.30;80.87;98842.94;4201311;28;20656;-84
2022/06/17 04:01:55;;;;;;;8.50;6.00;;;;;;;16.34;81.43;98849.66;4218212;28;20655;-84
2022/06/17 04:04:00;;;;;;;8.83;6.10;;;;;;;16.40;82.04;98850.94;4196038;28;20640;-85
2022/06/17 04:06:10;;;;;;;8.00;6.37;;;;;;;16.46;81.70;98859.19;4220073;28;20650;-84
2022/06/17 04:08:15;;;;;;;6.97;6.23;;;;;;;16.50;81.01;98848.28;4198441;28;20611;-84
2022/06/17 04:10:40;;;;;;;6.90;6.30;;;;;;;16.56;80.64;98850.44;4215921;28;20638;-85
2022/06/17 04:12:47;;;;;;;6.97;6.27;;;;;;;16.62;80.73;98854.38;4214225;28;21355;-84
2022/06/17 04:15:02;;;;;;;10.23;6.10;;;;;;;16.64;80.38;98863.00;4204949;28;20691;-84
2022/06/17 04:17:09;;;;;;;7.47;6.50;;;;;;;16.65;80.54;98860.22;4199620;28;21090;-84
2022/06/17 04:19:21;;;;;;;6.87;6.27;;;;;;;16.68;80.46;98865.25;4219327;28;20740;-85
2022/06/17 04:21:31;;;;;;;7.40;6.40;;;;;;;16.72;80.73;98868.50;4202781;28;20675;-84
2022/06/17 04:23:37;;;;;;;6.60;5.93;;;;;;;16.74;79.87;98863.94;4213992;28;20686;-85
2022/06/17 04:25:53;;;;;;;6.93;6.23;;;;;;;16.75;80.00;98874.34;4200455;28;20650;-84
2022/06/17 04:28:02;;;;;;;6.90;6.20;;;;;;;16.77;80.46;98879.50;4205242;28;20650;-85
2022/06/17 04:30:10;;;;;;;8.13;6.50;;;;;;;16.77;80.46;98880.31;4220209;28;20638;-84
2022/06/17 04:32:16;;;;;;;7.10;6.50;;;;;;;16.77;78.76;98877.69;4226193;28;21009;-84
2022/06/17 04:34:21;;;;;;;7.13;6.43;;;;;;;16.81;80.22;98871.22;4210568;28;20750;-85
2022/06/17 04:36:32;;;;;;;8.53;7.00;;;;;;;16.87;80.21;98877.78;4205238;28;20635;-84
2022/06/17 04:38:47;;;;;;;11.70;6.57;;;;;;;16.91;79.79;98882.69;4205055;28;20732;-84
2022/06/17 04:41:13;;;;;;;8.13;7.10;;;;;;;16.99;79.41;98885.56;4214132;28;21219;-85
2022/06/17 04:43:36;;;;;;;9.00;6.83;;;;;;;17.06;78.29;98884.94;4220803;28;20661;-84
2022/06/17 04:45:40;;;;;;;7.80;7.00;;;;;;;17.12;79.85;98886.22;4203673;28;20766;-84
2022/06/17 04:47:44;;;;;;;8.47;7.03;;;;;;;17.15;80.68;98881.50;4206988;28;20979;-85
2022/06/17 04:50:32;;;;;;;7.67;6.97;;;;;;;17.20;79.90;98884.66;4198043;28;20661;-85
2022/06/17 04:52:39;;;;;;;7.80;6.60;;;;;;;17.24;78.87;98890.50;4218893;28;20624;-84
2022/06/17 04:54:55;;;;;;;7.80;7.00;;;;;;;17.29;78.96;98891.81;4214250;28;20711;-84
2022/06/17 04:57:08;;;;;;;7.50;6.80;;;;;;;17.35;79.99;98893.94;4212706;28;21381;-84
2022/06/17 04:59:30;;;;;;;9.17;7.17;;;;;;;17.43;79.36;98904.69;4206219;28;20647;-85
2022/06/17 05:01:34;;;;;;;8.47;7.20;;;;;;;17.47;78.89;98903.50;4198579;28;21070;-84
2022/06/17 05:04:00;;;;;;;8.13;6.47;;;;;;;17.48;79.43;98906.00;4202323;28;20682;-84
2022/06/17 05:06:29;;;;;;;8.90;7.50;;;;;;;17.50;79.20;98911.16;4208487;28;20643;-85
2022/06/17 05:08:36;;;;;;;8.30;7.27;;;;;;;17.52;77.93;98907.41;4199269;28;21222;-85
2022/06/17 05:10:46;;;;;;;9.20;7.07;;;;;;;17.54;79.11;98904.63;4204996;28;20632;-84
2022/06/17 05:12:53;;;;;;;8.63;7.40;;;;;;;17.60;77.81;98906.75;4205359;28;20647;-85
2022/06/17 05:15:00;;;;;;;7.70;6.93;;;;;;;17.58;77.93;98912.16;4205783;28;20632;-84
2022/06/17 05:17:04;;;;;;;8.60;6.87;;;;;;;17.61;77.14;98927.75;4204714;28;20694;-84
2022/06/17 05:19:07;;;;;;;7.90;6.90;;;;;;;17.67;78.38;98924.59;4205575;28;20696;-84
2022/06/17 05:21:18;;;;;;;7.27;6.57;;;;;;;17.73;78.47;98924.09;4197465;28;21027;-84
2022/06/17 05:23:21;;;;;;;6.70;6.10;;;;;;;17.79;78.29;98920.94;4223031;28;20632;-85
2022/06/17 05:25:28;;;;;;;7.97;6.23;;;;;;;17.88;76.66;98932.53;4206826;28;21207;-85
2022/06/17 05:27:32;;;;;;;8.60;6.70;;;;;;;17.93;76.63;98933.81;4217006;28;20721;-85
2022/06/17 05:29:36;;;;;;;11.40;6.40;;;;;;;18.01;77.00;98928.69;4214402;28;21186;-84
2022/06/17 05:31:49;;;;;;;7.47;6.53;;;;;;;18.13;75.56;98932.97;4205631;28;20681;-85
2022/06/17 05:33:54;;;;;;;7.00;6.00;;;;;;;18.26;76.05;98941.53;4213368;28;20689;-84
2022/06/17 05:36:08;;;;;;;9.77;6.60;;;;;;;18.45;75.59;98942.47;4223274;28;20667;-84
2022/06/17 05:38:11;;;;;;;8.43;6.60;;;;;;;18.69;75.32;98945.63;4207340;28;20637;-85
2022/06/17 05:40:15;;;;;;;6.90;6.10;;;;;;;19.00;75.60;98937.50;4211433;28;20641;-84
2022/06/17 05:42:20;;;;;;;7.93;6.27;;;;;;;19.36;73.98;98948.31;4205111;28;20646;-85
2022/06/17 05:44:23;;;;;;;6.97;6.00;;;;;;;19.67;74.96;98948.06;4204043;28;20637;-85
2022/06/17 05:46:47;;;;;;;6.93;6.23;;;;;;;19.96;74.34;98954.19;4217451;28;21260;-85
2022/06/17 05:48:58;;;;;;;8.63;6.40;;;;;;;20.24;72.65;98950.66;4220847;28;20616;-85
2022/06/17 05:51:37;;;;;;;7.40;6.60;;;;;;;20.57;73.76;98957.09;4219166;28;20697;-85
2022/06/17 05:54:16;;;;;;;6.63;6.00;;;;;;;20.97;72.68;98963.81;4151021;28;20636;-85
2022/06/17 05:56:26;;;;;;;9.67;6.50;;;;;;;21.32;70.52;98969.19;4177374;28;21032;-85
2022/06/17 05:58:30;;;;;;;7.57;5.97;;;;;;;21.63;70.08;98968.69;4207009;28;20623;-85
2022/06/17 06:00:35;;;;;;;6.40;5.57;;;;;;;21.96;70.82;98970.66;4203661;28;20647;-85
2022/06/17 06:02:38;;;;;;;7.40;5.53;;;;;;;22.25;70.13;98972.06;4206414;28;21103;-85
2022/06/17 06:04:47;;;;;;;7.40;5.30;;;;;;;22.43;67.63;98975.50;4214455;28;20665;-85
2022/06/17 06:06:53;;;;;;;8.00;5.40;;;;;;;22.46;67.20;98972.53;4206474;28;21046;-85
2022/06/17 06:08:57;;;;;;;8.00;5.03;;;;;;;22.59;66.28;98962.31;4205986;28;20624;-85
2022/06/17 06:11:04;;;;;;;7.40;4.67;;;;;;;22.82;66.34;98966.91;4180648;28;20644;-85
2022/06/17 06:13:15;;;;;;;6.37;3.97;;;;;;;23.13;64.41;98970.75;4198523;28;20668;-84
2022/06/17 06:15:20;;;;;;;5.83;4.43;;;;;;;23.30;62.81;98967.97;4201768;28;20674;-85
2022/06/17 06:17:52;;;;;;;5.47;4.40;;;;;;;23.43;63.51;98976.34;4202019;28;20676;-85
2022/06/17 06:19:56;;;;;;;5.27;4.70;;;;;;;23.58;63.57;98978.22;4201165;28;21043;-85
2022/06/17 06:21:59;;;;;;;4.60;4.20;;;;;;;23.72;63.64;98972.25;4218870;28;20818;-85
2022/06/17 06:24:02;;;;;;;5.67;4.10;;;;;;;23.86;62.20;98971.59;4220815;27;20805;-86
2022/06/17 06:26:10;;;;;;;4.20;3.70;;;;;;;24.10;60.98;98951.13;4203891;28;21299;-87
2022/06/17 06:28:18;;;;;;;4.50;4.10;;;;;;;24.30;63.20;98958.59;4205942;28;20653;-88
2022/06/17 06:30:26;;;;;;;7.83;3.87;;;;;;;24.45;62.11;98958.78;4198502;28;20633;-87
2022/06/17 06:32:29;;;;;;;4.70;3.53;;;;;;;24.67;60.47;98950.88;4226100;28;20632;-87
2022/06/17 06:34:52;;;;;;;6.17;4.00;;;;;;;25.00;59.27;98963.13;4209504;28;20638;-95
2022/06/17 06:36:55;;;;;;;3.53;3.23;;;;;;;25.22;56.93;98969.38;4201600;28;20691;-87
2022/06/17 06:38:58;;;;;;;4.50;3.70;;;;;;;25.38;59.03;98963.97;4221844;28;20626;-88
2022/06/17 06:41:02;;;;;;;4.43;3.57;;;;;;;25.68;59.14;98957.81;4206260;28;21224;-88
2022/06/17 06:43:22;;;;;;;4.40;3.43;;;;;;;25.98;56.91;98955.06;4202056;28;21100;-88
2022/06/17 06:46:06;;;;;;;7.57;3.20;;;;;;;26.24;57.79;98948.28;4225174;28;20707;-87
2022/06/17 06:48:11;;;;;;;5.70;2.80;;;;;;;26.56;57.75;98966.75;4202785;28;20653;-87
2022/06/17 06:50:16;;;;;;;4.37;3.37;;;;;;;26.66;55.51;98959.28;4221997;28;20684;-88
2022/06/17 06:52:19;;;;;;;4.57;3.70;;;;;;;26.73;54.87;98955.69;4202885;28;21036;-87
2022/06/17 06:54:23;;;;;;;3.93;3.53;;;;;;;26.91;55.40;98958.00;4205299;28;20620;-88
2022/06/17 06:56:27;;;;;;;3.80;3.50;;;;;;;27.03;56.33;98961.88;4205454;28;20729;-87
2022/06/17 06:58:30;;;;;;;5.13;3.60;;;;;;;27.15;56.51;98964.75;4210979;28;20986;-87
2022/06/17 07:00:36;;;;;;;4.00;3.60;;;;;;;27.37;56.00;98965.63;4210269;28;20622;-88
2022/06/17 07:02:41;;;;;;;4.43;3.80;;;;;;;27.49;55.76;98958.78;4204245;28;21244;-86
2022/06/17 07:04:46;;;;;;;4.40;3.33;;;;;;;27.49;54.46;98972.19;4224980;28;20615;-86
2022/06/17 07:06:50;;;;;;;4.87;3.90;;;;;;;27.50;55.38;98960.44;4222945;27;21109;-86
2022/06/17 07:08:53;;;;;;;9.90;4.33;;;;;;;27.61;55.93;98966.97;4205320;28;20619;-86
2022/06/17 07:10:59;;;;;;;7.23;4.07;;;;;;;27.84;57.54;98958.75;4220814;28;21125;-86
2022/06/17 07:13:03;;;;;;;5.80;4.00;;;;;;;27.94;56.11;98962.78;4207909;28;20660;-86
2022/06/17 07:15:07;;;;;;;5.10;3.70;;;;;;;27.91;52.31;98970.41;4212367;28;20635;-86
2022/06/17 07:17:12;;;;;;;4.93;3.90;;;;;;;27.92;56.34;98969.34;4205497;28;21028;-87
2022/06/17 07:19:19;;;;;;;5.10;4.20;;;;;;;28.04;53.99;98972.19;4203686;28;21028;-86
2022/06/17 07:21:22;;;;;;;4.50;3.50;;;;;;;28.07;53.39;98966.44;4207025;28;20693;-86
2022/06/17 07:23:29;;;;;;;5.13;3.70;;;;;;;28.25;54.29;98963.28;4207904;28;20648;-86
2022/06/17 07:25:33;;;;;;;4.33;3.93;;;;;;;28.43;54.42;98977.94;4216289;28;20729;-86
2022/06/17 07:27:36;;;;;;;4.37;3.93;;;;;;;28.45;52.27;98981.25;4225040;28;20629;-86
2022/06/17 07:29:51;;;;;;;5.37;4.00;;;;;;;28.40;52.41;98974.78;4192562;28;20751;-86
2022/06/17 07:31:54;;;;;;;5.90;3.70;;;;;;;28.53;54.32;98979.22;4225729;28;20739;-87
2022/06/17 07:33:58;;;;;;;5.57;3.70;;;;;;;28.77;54.58;98978.00;4210888;28;20622;-86
2022/06/17 07:36:05;;;;;;;5.43;4.27;;;;;;;28.92;54.58;98974.16;4218148;28;21209;-86
2022/06/17 07:40:33;;;;;;;6.40;4.20;;;;;;;29.08;53.93;98979.22;4204234;28;20726;-86
2022/06/17 07:42:39;;;;;;;4.30;3.90;;;;;;;29.15;54.90;98970.16;4209377;28;21151;-86
2022/06/17 07:44:42;;;;;;;5.30;3.80;;;;;;;29.22;54.33;98978.25;4216440;28;20722;-86
2022/06/17 07:46:45;;;;;;;8.87;4.43;;;;;;;29.24;52.45;98978.91;4203199;28;20634;-86
2022/06/17 07:49:07;;;;;;;5.07;3.90;;;;;;;29.13;52.71;98977.59;4219959;28;20688;-86
2022/06/17 07:51:11;;;;;;;6.43;3.83;;;;;;;29.20;54.72;98981.16;4203494;28;21090;-86
2022/06/17 07:53:26;;;;;;;4.20;3.80;;;;;;;29.37;54.42;98976.28;4207170;28;21189;-86
2022/06/17 07:55:29;;;;;;;4.50;4.00;;;;;;;29.46;53.06;98983.97;4215417;28;20725;-86
2022/06/17 07:57:33;;;;;;;5.40;4.10;;;;;;;29.48;51.45;98981.91;4199028;28;21067;-86
2022/06/17 07:59:36;;;;;;;6.60;3.90;;;;;;;29.49;53.04;98979.00;4217765;28;21188;-88
2022/06/17 08:01:39;;;;;;;6.73;3.97;;;;;;;29.49;50.93;98984.41;4198860;28;20834;-87
2022/06/17 08:03:42;;;;;;;5.07;3.87;;;;;;;29.54;52.00;98983.78;4212416;28;20663;-88
2022/06/17 08:05:48;;;;;;;5.80;4.50;;;;;;;29.50;51.42;98979.88;4216914;28;20654;-91
2022/06/17 08:07:54;;;;;;;5.17;4.27;;;;;;;29.34;54.21;98980.19;4199864;28;20721;-87
2022/06/17 08:09:57;;;;;;;4.50;4.10;;;;;;;29.43;54.19;98976.31;4217429;28;20670;-87
2022/06/17 08:12:00;;;;;;;4.73;3.83;;;;;;;29.44;53.40;98983.34;4201242;28;20665;-86
2022/06/17 08:14:03;;;;;;;4.50;4.00;;;;;;;29.40;52.14;98975.88;4203629;28;20643;-86
2022/06/17 08:16:09;;;;;;;4.60;4.13;;;;;;;29.30;53.59;98980.81;4200078;28;20630;-87
2022/06/17 08:18:13;;;;;;;4.50;4.13;;;;;;;29.26;52.67;98969.63;4204645;28;20630;-87
2022/06/17 08:20:19;;;;;;;4.30;3.90;;;;;;;29.20;53.47;98973.06;4220876;28;20626;-86
2022/06/17 08:22:24;;;;;;;4.50;4.10;;;;;;;29.20;52.37;98973.06;4207267;28;20661;-86
2022/06/17 08:24:28;;;;;;;5.97;4.30;;;;;;;29.22;53.82;98973.69;4214101;28;20648;-86
2022/06/17 08:26:41;;;;;;;5.97;4.40;;;;;;;29.22;50.93;98973.69;4212769;28;21221;-86
2022/06/17 08:28:45;;;;;;;4.90;4.40;;;;;;;29.14;50.66;98973.06;4209242;28;20725;-86
2022/06/17 08:30:52;;;;;;;6.53;4.67;;;;;;;29.14;51.05;98978.44;4204453;28;20714;-86
2022/06/17 08:32:56;;;;;;;5.43;4.40;;;;;;;29.06;51.67;98971.34;4199525;28;21069;-86
2022/06/17 08:34:59;;;;;;;6.03;4.43;;;;;;;29.03;50.85;98966.38;4215159;28;20656;-87
2022/06/17 08:37:02;;;;;;;5.43;4.93;;;;;;;29.08;52.19;98982.72;4219678;28;20630;-86
2022/06/17 08:39:08;;;;;;;6.37;4.60;;;;;;;29.22;52.60;98987.16;4227504;28;20871;-87
2022/06/17 08:41:28;;;;;;;8.03;6.50;;;;;;;29.47;52.65;98983.78;4228394;28;20686;-86
2022/06/17 08:44:28;;;;;;;5.30;4.80;;;;;;;29.54;50.79;98978.41;4218491;28;21129;-86
2022/06/17 08:46:44;;;;;;;5.00;4.20;;;;;;;29.66;50.95;98984.88;4124267;28;21527;-86
2022/06/17 08:49:00;;;;;;;5.20;4.80;;;;;;;29.68;49.52;98986.34;4191218;28;20626;-86
2022/06/17 08:51:15;;;;;;;4.27;3.87;;;;;;;29.78;51.10;98984.06;4216973;28;20618;-86
2022/06/17 08:53:46;;;;;;;5.23;4.70;;;;;;;29.93;52.63;98978.56;4203138;28;20636;-87
2022/06/17 08:56:17;;;;;;;4.83;4.43;;;;;;;29.98;52.16;98985.00;4205851;28;20662;-86
2022/06/17 08:58:25;;;;;;;4.40;4.00;;;;;;;30.02;50.24;98981.66;4214320;28;20740;-87
2022/06/17 09:00:36;;;;;;;5.83;3.97;;;;;;;29.99;50.89;98976.72;4200599;28;20626;-86
2022/06/17 09:02:57;;;;;;;4.30;3.90;;;;;;;30.00;49.26;98977.53;4203359;28;20614;-86
2022/06/17 09:05:12;;;;;;;4.97;4.03;;;;;;;30.05;50.99;98975.06;4201407;28;21005;-86
2022/06/17 09:07:20;;;;;;;4.33;3.93;;;;;;;30.10;50.75;98976.09;4218545;28;20645;-86
2022/06/17 09:09:53;;;;;;;7.70;4.10;;;;;;;30.16;48.67;98966.34;4211900;28;21062;-86
2022/06/17 09:12:02;;;;;;;3.90;3.60;;;;;;;30.17;50.69;98970.72;4224051;28;20775;-86
2022/06/17 09:14:27;;;;;;;4.17;3.77;;;;;;;30.19;49.25;98965.94;4205921;28;20649;-86
2022/06/17 09:16:37;;;;;;;4.63;4.13;;;;;;;30.13;48.50;98970.31;4207412;28;20642;-87
2022/06/17 09:18:42;;;;;;;6.67;4.40;;;;;;;30.07;49.19;98968.44;4201265;28;20658;-86
2022/06/17 09:20:49;;;;;;;4.23;3.43;;;;;;;30.10;52.05;98973.41;4215181;28;20714;-86
2022/06/17 09:22:55;;;;;;;4.70;3.77;;;;;;;30.13;51.51;98966.75;4202187;28;20696;-86
2022/06/17 09:25:06;;;;;;;4.60;3.73;;;;;;;30.14;50.01;98969.25;4205588;28;20710;-86
2022/06/17 09:27:11;;;;;;;5.33;4.00;;;;;;;30.12;49.25;98965.13;4214725;28;21278;-86
2022/06/17 09:29:25;;;;;;;6.20;4.00;;;;;;;30.08;49.31;98980.03;4198015;28;21191;-86
2022/06/17 09:31:41;;;;;;;6.83;3.90;;;;;;;29.97;49.27;98968.00;4190023;28;20742;-86
2022/06/17 09:33:55;;;;;;;4.30;3.90;;;;;;;29.99;49.80;98963.25;4197630;28;20628;-86
2022/06/17 09:36:31;;;;;;;4.03;3.73;;;;;;;30.10;49.91;98957.25;4200959;28;20661;-86
2022/06/17 09:38:39;;;;;;;5.97;4.17;;;;;;;30.13;49.31;98964.91;4219993;28;20656;-86
2022/06/17 09:40:44;;;;;;;5.90;3.57;;;;;;;30.14;49.78;98968.44;4204356;28;20645;-86
2022/06/17 09:42:57;;;;;;;4.57;4.17;;;;;;;30.04;48.74;98971.53;4181372;28;20652;-86
2022/06/17 09:45:08;;;;;;;4.43;3.90;;;;;;;29.88;48.08;98975.66;4150342;28;20811;-86
2022/06/17 09:47:16;;;;;;;5.23;4.63;;;;;;;29.71;49.58;98972.47;4143959;28;20637;-86
2022/06/17 09:49:23;;;;;;;4.20;3.80;;;;;;;29.62;49.74;98968.31;4153500;28;20637;-86
2022/06/17 09:51:35;;;;;;;5.77;4.50;;;;;;;29.61;48.38;98963.94;4170318;28;20640;-86
2022/06/17 09:53:42;;;;;;;7.33;4.40;;;;;;;29.55;50.25;98967.44;4154986;28;20651;-86
2022/06/17 09:55:47;;;;;;;5.27;3.83;;;;;;;29.62;50.84;98967.50;4172394;28;20647;-86
2022/06/17 09:57:54;;;;;;;4.43;3.97;;;;;;;29.75;50.44;98964.81;4158838;28;20633;-86
2022/06/17 10:00:22;;;;;;;4.33;4.00;;;;;;;29.80;48.33;98959.69;4168570;28;20994;-86
2022/06/17 10:02:31;;;;;;;5.60;4.03;;;;;;;29.68;49.97;98956.75;4171079;28;20701;-86
2022/06/17 10:04:34;;;;;;;5.93;4.17;;;;;;;29.65;49.05;98949.06;4171622;28;20644;-87
2022/06/17 10:06:44;;;;;;;4.77;4.27;;;;;;;29.59;48.70;98949.06;4169903;28;21191;-86
2022/06/17 10:08:55;;;;;;;5.80;4.30;;;;;;;29.46;48.32;98946.31;4166630;28;20640;-86